sensor_id;sensor_type;location;lat;lon;timestamp;temperature;humidity
12885;DHT22;6510;51.362;7.370;2023-04-30T00:02:12;7.30;99.90
12885;DHT22;6510;51.362;7.370;2023-04-30T00:04:37;7.30;99.90
12885;DHT22;6510;51.362;7.370;2023-04-30T00:07:03;7.20;99.90
12885;DHT22;6510;51.362;7.370;2023-04-30T00:09:28;7.20;99.90
12885;DHT22;6510;51.362;7.370;2023-04-30T00:11:54;7.20;99.90
12885;DHT22;6510;51.362;7.370;2023-04-30T00:14:20;7.20;99.90
12885;DHT22;6510;51.362;7.370;2023-04-30T00:16:46;7.20;99.90
12885;DHT22;6510;51.362;7.370;2023-04-30T00:19:11;7.20;99.90
12885;DHT22;6510;51.362;7.370;2023-04-30T00:21:37;7.10;99.90
12885;DHT22;6510;51.362;7.370;2023-04-30T00:24:03;7.10;99.90
12885;DHT22;6510;51.362;7.370;2023-04-30T00:26:28;7.10;99.90
12885;DHT22;6510;51.362;7.370;2023-04-30T00:28:54;7.20;99.90
12885;DHT22;6510;51.362;7.370;2023-04-30T00:31:20;7.10;99.90
12885;DHT22;6510;51.362;7.370;2023-04-30T00:33:45;7.00;99.90
12885;DHT22;6510;51.362;7.370;2023-04-30T00:36:11;7.00;99.90
12885;DHT22;6510;51.362;7.370;2023-04-30T00:38:36;6.90;99.90
12885;DHT22;6510;51.362;7.370;2023-04-30T00:41:03;6.80;99.90
12885;DHT22;6510;51.362;7.370;2023-04-30T00:43:28;6.80;99.90
12885;DHT22;6510;51.362;7.370;2023-04-30T00:45:54;6.80;99.90
12885;DHT22;6510;51.362;7.370;2023-04-30T00:48:20;6.80;99.90
12885;DHT22;6510;51.362;7.370;2023-04-30T00:50:46;6.70;99.90
12885;DHT22;6510;51.362;7.370;2023-04-30T00:53:11;6.70;99.90
12885;DHT22;6510;51.362;7.370;2023-04-30T00:55:39;6.70;99.90
12885;DHT22;6510;51.362;7.370;2023-04-30T00:58:06;6.70;99.90
12885;DHT22;6510;51.362;7.370;2023-04-30T01:00:32;6.70;99.90
12885;DHT22;6510;51.362;7.370;2023-04-30T01:02:59;6.70;99.90
12885;DHT22;6510;51.362;7.370;2023-04-30T01:05:25;6.60;99.90
12885;DHT22;6510;51.362;7.370;2023-04-30T01:07:51;6.60;99.90
12885;DHT22;6510;51.362;7.370;2023-04-30T01:10:17;6.50;99.90
12885;DHT22;6510;51.362;7.370;2023-04-30T01:15:13;6.40;99.90
12885;DHT22;6510;51.362;7.370;2023-04-30T01:21:04;6.40;99.90
12885;DHT22;6510;51.362;7.370;2023-04-30T01:29:07;6.40;99.90
12885;DHT22;6510;51.362;7.370;2023-04-30T01:31:34;6.40;99.90
12885;DHT22;6510;51.362;7.370;2023-04-30T01:34:00;6.40;99.90
12885;DHT22;6510;51.362;7.370;2023-04-30T01:37:37;6.20;99.90
12885;DHT22;6510;51.362;7.370;2023-04-30T01:42:24;6.10;99.90
12885;DHT22;6510;51.362;7.370;2023-04-30T01:47:34;6.10;99.90
12885;DHT22;6510;51.362;7.370;2023-04-30T01:50:41;6.10;99.90
12885;DHT22;6510;51.362;7.370;2023-04-30T01:53:17;6.00;99.90
12885;DHT22;6510;51.362;7.370;2023-04-30T01:58:14;6.10;99.90
12885;DHT22;6510;51.362;7.370;2023-04-30T02:00:41;6.10;99.90
12885;DHT22;6510;51.362;7.370;2023-04-30T02:03:06;6.00;99.90
12885;DHT22;6510;51.362;7.370;2023-04-30T02:05:32;6.10;99.90
12885;DHT22;6510;51.362;7.370;2023-04-30T02:07:58;6.10;99.90
12885;DHT22;6510;51.362;7.370;2023-04-30T02:10:25;6.10;99.90
12885;DHT22;6510;51.362;7.370;2023-04-30T02:12:51;6.00;99.90
12885;DHT22;6510;51.362;7.370;2023-04-30T02:15:17;6.10;99.90
12885;DHT22;6510;51.362;7.370;2023-04-30T02:17:43;6.10;99.90
12885;DHT22;6510;51.362;7.370;2023-04-30T02:20:09;6.10;99.90
12885;DHT22;6510;51.362;7.370;2023-04-30T02:22:35;6.00;99.90
12885;DHT22;6510;51.362;7.370;2023-04-30T02:25:01;5.90;99.90
12885;DHT22;6510;51.362;7.370;2023-04-30T02:27:29;5.70;99.90
12885;DHT22;6510;51.362;7.370;2023-04-30T02:29:55;5.70;99.90
12885;DHT22;6510;51.362;7.370;2023-04-30T02:32:21;5.80;99.90
12885;DHT22;6510;51.362;7.370;2023-04-30T02:34:47;5.80;99.90
12885;DHT22;6510;51.362;7.370;2023-04-30T02:37:13;5.70;99.90
12885;DHT22;6510;51.362;7.370;2023-04-30T02:39:41;5.70;99.90
12885;DHT22;6510;51.362;7.370;2023-04-30T02:42:06;5.70;99.90
12885;DHT22;6510;51.362;7.370;2023-04-30T02:44:33;5.70;99.90
12885;DHT22;6510;51.362;7.370;2023-04-30T02:46:59;5.70;99.90
12885;DHT22;6510;51.362;7.370;2023-04-30T02:49:25;5.50;99.90
12885;DHT22;6510;51.362;7.370;2023-04-30T02:51:51;5.50;99.90
12885;DHT22;6510;51.362;7.370;2023-04-30T02:54:17;5.50;99.90
12885;DHT22;6510;51.362;7.370;2023-04-30T02:56:43;5.50;99.90
12885;DHT22;6510;51.362;7.370;2023-04-30T02:59:09;5.50;99.90
12885;DHT22;6510;51.362;7.370;2023-04-30T03:01:34;5.50;99.90
12885;DHT22;6510;51.362;7.370;2023-04-30T03:04:00;5.50;99.90
12885;DHT22;6510;51.362;7.370;2023-04-30T03:06:28;5.50;99.90
12885;DHT22;6510;51.362;7.370;2023-04-30T03:08:54;5.50;99.90
12885;DHT22;6510;51.362;7.370;2023-04-30T03:11:20;5.40;99.90
12885;DHT22;6510;51.362;7.370;2023-04-30T03:13:47;5.40;99.90
12885;DHT22;6510;51.362;7.370;2023-04-30T03:16:19;5.40;99.90
12885;DHT22;6510;51.362;7.370;2023-04-30T03:18:46;5.30;99.90
12885;DHT22;6510;51.362;7.370;2023-04-30T03:21:12;5.20;99.90
12885;DHT22;6510;51.362;7.370;2023-04-30T03:23:38;5.20;99.90
12885;DHT22;6510;51.362;7.370;2023-04-30T03:26:04;5.20;99.90
12885;DHT22;6510;51.362;7.370;2023-04-30T03:28:30;5.20;99.90
12885;DHT22;6510;51.362;7.370;2023-04-30T03:30:55;5.20;99.90
12885;DHT22;6510;51.362;7.370;2023-04-30T03:33:21;5.20;99.90
12885;DHT22;6510;51.362;7.370;2023-04-30T03:35:46;5.20;99.90
12885;DHT22;6510;51.362;7.370;2023-04-30T03:38:13;5.20;99.90
12885;DHT22;6510;51.362;7.370;2023-04-30T03:40:39;5.20;99.90
12885;DHT22;6510;51.362;7.370;2023-04-30T03:43:04;5.10;99.90
12885;DHT22;6510;51.362;7.370;2023-04-30T03:45:30;5.10;99.90
12885;DHT22;6510;51.362;7.370;2023-04-30T03:47:56;5.20;99.90
12885;DHT22;6510;51.362;7.370;2023-04-30T03:50:21;5.10;99.90
12885;DHT22;6510;51.362;7.370;2023-04-30T03:52:47;5.10;99.90
12885;DHT22;6510;51.362;7.370;2023-04-30T03:55:13;5.00;99.90
12885;DHT22;6510;51.362;7.370;2023-04-30T03:57:39;5.00;99.90
12885;DHT22;6510;51.362;7.370;2023-04-30T04:00:08;5.00;99.90
12885;DHT22;6510;51.362;7.370;2023-04-30T04:02:34;5.00;99.90
12885;DHT22;6510;51.362;7.370;2023-04-30T04:05:01;5.00;99.90
12885;DHT22;6510;51.362;7.370;2023-04-30T04:07:27;5.10;99.90
12885;DHT22;6510;51.362;7.370;2023-04-30T04:09:53;5.00;99.90
12885;DHT22;6510;51.362;7.370;2023-04-30T04:12:18;5.00;99.90
12885;DHT22;6510;51.362;7.370;2023-04-30T04:14:44;5.00;99.90
12885;DHT22;6510;51.362;7.370;2023-04-30T04:17:11;5.00;99.90
12885;DHT22;6510;51.362;7.370;2023-04-30T04:19:36;5.00;99.90
12885;DHT22;6510;51.362;7.370;2023-04-30T04:22:02;5.00;99.90
12885;DHT22;6510;51.362;7.370;2023-04-30T04:24:28;5.00;99.90
12885;DHT22;6510;51.362;7.370;2023-04-30T04:26:54;5.10;99.90
12885;DHT22;6510;51.362;7.370;2023-04-30T04:29:20;5.10;99.90
12885;DHT22;6510;51.362;7.370;2023-04-30T04:31:46;5.10;99.90
12885;DHT22;6510;51.362;7.370;2023-04-30T04:34:13;5.10;99.90
12885;DHT22;6510;51.362;7.370;2023-04-30T04:36:39;5.20;99.90
12885;DHT22;6510;51.362;7.370;2023-04-30T04:39:04;5.20;99.90
12885;DHT22;6510;51.362;7.370;2023-04-30T04:41:31;5.40;99.90
12885;DHT22;6510;51.362;7.370;2023-04-30T04:44:00;5.50;99.90
12885;DHT22;6510;51.362;7.370;2023-04-30T04:46:28;5.60;99.90
12885;DHT22;6510;51.362;7.370;2023-04-30T04:48:54;6.20;99.90
12885;DHT22;6510;51.362;7.370;2023-04-30T04:51:20;6.50;99.90
12885;DHT22;6510;51.362;7.370;2023-04-30T04:53:46;6.70;99.90
12885;DHT22;6510;51.362;7.370;2023-04-30T04:56:11;7.10;99.90
12885;DHT22;6510;51.362;7.370;2023-04-30T04:58:38;7.40;99.90
12885;DHT22;6510;51.362;7.370;2023-04-30T05:01:04;7.60;99.90
12885;DHT22;6510;51.362;7.370;2023-04-30T05:03:31;7.20;99.90
12885;DHT22;6510;51.362;7.370;2023-04-30T05:05:57;7.20;99.90
12885;DHT22;6510;51.362;7.370;2023-04-30T05:08:23;7.00;99.90
12885;DHT22;6510;51.362;7.370;2023-04-30T05:10:49;7.00;99.90
12885;DHT22;6510;51.362;7.370;2023-04-30T05:13:15;6.90;99.90
12885;DHT22;6510;51.362;7.370;2023-04-30T05:15:41;6.80;99.90
12885;DHT22;6510;51.362;7.370;2023-04-30T05:18:06;7.10;99.90
12885;DHT22;6510;51.362;7.370;2023-04-30T05:20:32;7.30;99.90
12885;DHT22;6510;51.362;7.370;2023-04-30T05:22:57;7.70;99.90
12885;DHT22;6510;51.362;7.370;2023-04-30T05:25:23;8.90;99.90
12885;DHT22;6510;51.362;7.370;2023-04-30T05:27:49;10.00;99.90
12885;DHT22;6510;51.362;7.370;2023-04-30T05:30:14;10.60;99.90
12885;DHT22;6510;51.362;7.370;2023-04-30T05:32:41;11.10;99.90
12885;DHT22;6510;51.362;7.370;2023-04-30T05:35:07;11.40;99.90
12885;DHT22;6510;51.362;7.370;2023-04-30T05:37:33;11.80;99.90
12885;DHT22;6510;51.362;7.370;2023-04-30T05:39:59;12.10;99.90
12885;DHT22;6510;51.362;7.370;2023-04-30T05:42:24;12.40;99.90
12885;DHT22;6510;51.362;7.370;2023-04-30T05:44:50;12.50;99.90
12885;DHT22;6510;51.362;7.370;2023-04-30T05:47:16;12.30;99.90
12885;DHT22;6510;51.362;7.370;2023-04-30T05:49:42;12.60;99.90
12885;DHT22;6510;51.362;7.370;2023-04-30T05:52:07;12.40;99.90
12885;DHT22;6510;51.362;7.370;2023-04-30T05:54:33;12.40;99.90
12885;DHT22;6510;51.362;7.370;2023-04-30T05:56:59;12.60;99.90
12885;DHT22;6510;51.362;7.370;2023-04-30T05:59:25;13.10;99.90
12885;DHT22;6510;51.362;7.370;2023-04-30T06:01:51;12.90;99.90
12885;DHT22;6510;51.362;7.370;2023-04-30T06:04:16;12.80;99.90
12885;DHT22;6510;51.362;7.370;2023-04-30T06:06:42;13.00;99.90
12885;DHT22;6510;51.362;7.370;2023-04-30T06:09:08;12.50;99.90
12885;DHT22;6510;51.362;7.370;2023-04-30T06:11:35;12.80;99.90
12885;DHT22;6510;51.362;7.370;2023-04-30T06:14:02;13.10;99.90
12885;DHT22;6510;51.362;7.370;2023-04-30T06:16:28;13.40;99.90
12885;DHT22;6510;51.362;7.370;2023-04-30T06:18:53;13.00;99.90
12885;DHT22;6510;51.362;7.370;2023-04-30T06:21:19;13.30;99.90
12885;DHT22;6510;51.362;7.370;2023-04-30T06:23:45;13.80;99.90
12885;DHT22;6510;51.362;7.370;2023-04-30T06:26:10;14.30;99.90
12885;DHT22;6510;51.362;7.370;2023-04-30T06:28:39;14.00;99.90
12885;DHT22;6510;51.362;7.370;2023-04-30T06:31:05;14.20;99.90
12885;DHT22;6510;51.362;7.370;2023-04-30T06:33:30;14.10;99.90
12885;DHT22;6510;51.362;7.370;2023-04-30T06:35:56;14.20;99.90
12885;DHT22;6510;51.362;7.370;2023-04-30T06:38:21;14.50;99.90
12885;DHT22;6510;51.362;7.370;2023-04-30T06:40:47;15.20;99.90
12885;DHT22;6510;51.362;7.370;2023-04-30T06:43:13;15.20;99.90
12885;DHT22;6510;51.362;7.370;2023-04-30T06:45:38;14.50;99.90
12885;DHT22;6510;51.362;7.370;2023-04-30T06:48:04;14.90;99.90
12885;DHT22;6510;51.362;7.370;2023-04-30T06:50:30;15.30;99.90
12885;DHT22;6510;51.362;7.370;2023-04-30T06:52:56;14.70;99.90
12885;DHT22;6510;51.362;7.370;2023-04-30T06:55:21;14.60;99.90
12885;DHT22;6510;51.362;7.370;2023-04-30T06:57:47;14.90;99.90
12885;DHT22;6510;51.362;7.370;2023-04-30T07:00:13;15.30;99.90
12885;DHT22;6510;51.362;7.370;2023-04-30T07:02:41;14.80;99.90
12885;DHT22;6510;51.362;7.370;2023-04-30T07:05:08;15.80;99.90
12885;DHT22;6510;51.362;7.370;2023-04-30T07:07:34;15.90;99.90
12885;DHT22;6510;51.362;7.370;2023-04-30T07:09:59;16.40;99.90
12885;DHT22;6510;51.362;7.370;2023-04-30T07:12:25;17.30;99.90
12885;DHT22;6510;51.362;7.370;2023-04-30T07:14:51;17.20;99.90
12885;DHT22;6510;51.362;7.370;2023-04-30T07:17:16;16.30;99.90
12885;DHT22;6510;51.362;7.370;2023-04-30T07:19:42;17.00;99.90
12885;DHT22;6510;51.362;7.370;2023-04-30T07:22:08;17.90;99.90
12885;DHT22;6510;51.362;7.370;2023-04-30T07:24:34;17.80;99.90
12885;DHT22;6510;51.362;7.370;2023-04-30T07:26:59;18.50;99.90
12885;DHT22;6510;51.362;7.370;2023-04-30T07:29:28;18.50;99.90
12885;DHT22;6510;51.362;7.370;2023-04-30T07:31:54;17.30;99.90
12885;DHT22;6510;51.362;7.370;2023-04-30T07:34:20;17.40;99.90
12885;DHT22;6510;51.362;7.370;2023-04-30T07:36:47;17.10;99.90
12885;DHT22;6510;51.362;7.370;2023-04-30T07:39:16;17.60;99.90
12885;DHT22;6510;51.362;7.370;2023-04-30T07:41:42;16.50;99.90
12885;DHT22;6510;51.362;7.370;2023-04-30T07:44:08;17.20;99.90
12885;DHT22;6510;51.362;7.370;2023-04-30T07:46:33;18.00;99.90
12885;DHT22;6510;51.362;7.370;2023-04-30T07:49:00;17.90;99.90
12885;DHT22;6510;51.362;7.370;2023-04-30T07:51:27;18.30;99.90
12885;DHT22;6510;51.362;7.370;2023-04-30T07:53:53;18.10;99.90
12885;DHT22;6510;51.362;7.370;2023-04-30T07:56:22;18.60;99.90
12885;DHT22;6510;51.362;7.370;2023-04-30T07:58:47;18.70;99.90
12885;DHT22;6510;51.362;7.370;2023-04-30T08:01:14;18.30;99.90
12885;DHT22;6510;51.362;7.370;2023-04-30T08:03:40;18.00;99.90
12885;DHT22;6510;51.362;7.370;2023-04-30T08:06:05;19.30;99.90
12885;DHT22;6510;51.362;7.370;2023-04-30T08:08:32;19.40;99.90
12885;DHT22;6510;51.362;7.370;2023-04-30T08:10:57;19.20;99.90
12885;DHT22;6510;51.362;7.370;2023-04-30T08:13:23;18.30;99.90
12885;DHT22;6510;51.362;7.370;2023-04-30T08:15:49;19.10;99.90
12885;DHT22;6510;51.362;7.370;2023-04-30T08:18:14;18.60;99.90
12885;DHT22;6510;51.362;7.370;2023-04-30T08:20:40;18.70;99.90
12885;DHT22;6510;51.362;7.370;2023-04-30T08:23:09;18.30;99.90
12885;DHT22;6510;51.362;7.370;2023-04-30T08:25:35;18.20;99.90
12885;DHT22;6510;51.362;7.370;2023-04-30T08:28:01;19.40;99.90
12885;DHT22;6510;51.362;7.370;2023-04-30T08:30:27;19.90;99.90
12885;DHT22;6510;51.362;7.370;2023-04-30T08:32:52;19.90;99.90
12885;DHT22;6510;51.362;7.370;2023-04-30T08:35:18;19.60;99.90
12885;DHT22;6510;51.362;7.370;2023-04-30T08:37:45;19.50;99.90
12885;DHT22;6510;51.362;7.370;2023-04-30T08:40:11;19.80;99.90
12885;DHT22;6510;51.362;7.370;2023-04-30T08:42:48;20.10;99.90
12885;DHT22;6510;51.362;7.370;2023-04-30T08:45:14;20.70;99.90
12885;DHT22;6510;51.362;7.370;2023-04-30T08:47:41;20.40;99.90
12885;DHT22;6510;51.362;7.370;2023-04-30T08:50:07;20.50;99.90
12885;DHT22;6510;51.362;7.370;2023-04-30T08:52:34;20.50;99.90
12885;DHT22;6510;51.362;7.370;2023-04-30T08:55:00;20.80;99.90
12885;DHT22;6510;51.362;7.370;2023-04-30T08:57:26;20.00;99.90
12885;DHT22;6510;51.362;7.370;2023-04-30T08:59:55;19.90;99.90
12885;DHT22;6510;51.362;7.370;2023-04-30T09:02:21;19.80;99.90
12885;DHT22;6510;51.362;7.370;2023-04-30T09:04:47;20.10;99.90
12885;DHT22;6510;51.362;7.370;2023-04-30T09:07:13;19.40;99.90
12885;DHT22;6510;51.362;7.370;2023-04-30T09:09:40;19.90;99.90
12885;DHT22;6510;51.362;7.370;2023-04-30T09:12:16;20.90;99.90
12885;DHT22;6510;51.362;7.370;2023-04-30T09:15:04;21.20;99.90
12885;DHT22;6510;51.362;7.370;2023-04-30T09:17:31;20.60;99.90
12885;DHT22;6510;51.362;7.370;2023-04-30T09:20:07;20.80;99.90
12885;DHT22;6510;51.362;7.370;2023-04-30T09:22:37;20.90;99.90
12885;DHT22;6510;51.362;7.370;2023-04-30T09:25:03;20.30;99.90
12885;DHT22;6510;51.362;7.370;2023-04-30T09:27:29;21.40;99.90
12885;DHT22;6510;51.362;7.370;2023-04-30T09:29:55;21.40;99.90
12885;DHT22;6510;51.362;7.370;2023-04-30T09:32:21;21.20;99.90
12885;DHT22;6510;51.362;7.370;2023-04-30T09:34:47;19.90;99.90
12885;DHT22;6510;51.362;7.370;2023-04-30T09:37:12;20.90;99.90
12885;DHT22;6510;51.362;7.370;2023-04-30T09:39:53;20.90;99.90
12885;DHT22;6510;51.362;7.370;2023-04-30T09:42:22;20.90;99.90
12885;DHT22;6510;51.362;7.370;2023-04-30T09:44:48;21.10;99.90
12885;DHT22;6510;51.362;7.370;2023-04-30T09:47:15;21.00;99.90
12885;DHT22;6510;51.362;7.370;2023-04-30T09:49:42;21.30;99.90
12885;DHT22;6510;51.362;7.370;2023-04-30T09:52:09;21.40;99.90
12885;DHT22;6510;51.362;7.370;2023-04-30T09:54:36;21.50;99.90
12885;DHT22;6510;51.362;7.370;2023-04-30T09:57:03;22.20;99.90
12885;DHT22;6510;51.362;7.370;2023-04-30T09:59:35;21.40;99.90
12885;DHT22;6510;51.362;7.370;2023-04-30T10:02:14;21.80;99.90
12885;DHT22;6510;51.362;7.370;2023-04-30T10:04:53;21.90;99.90
12885;DHT22;6510;51.362;7.370;2023-04-30T10:07:25;20.90;99.90
12885;DHT22;6510;51.362;7.370;2023-04-30T10:09:57;20.50;99.90
12885;DHT22;6510;51.362;7.370;2023-04-30T10:12:31;20.70;99.90
12885;DHT22;6510;51.362;7.370;2023-04-30T10:15:38;20.60;99.90
12885;DHT22;6510;51.362;7.370;2023-04-30T10:18:02;20.20;99.90
12885;DHT22;6510;51.362;7.370;2023-04-30T10:20:30;21.00;99.90
12885;DHT22;6510;51.362;7.370;2023-04-30T10:22:58;21.40;99.90
12885;DHT22;6510;51.362;7.370;2023-04-30T10:25:25;22.20;99.90
12885;DHT22;6510;51.362;7.370;2023-04-30T10:27:53;22.10;99.90
12885;DHT22;6510;51.362;7.370;2023-04-30T10:30:28;20.60;99.90
12885;DHT22;6510;51.362;7.370;2023-04-30T10:35:59;21.60;99.90
12885;DHT22;6510;51.362;7.370;2023-04-30T10:38:27;22.50;99.90
12885;DHT22;6510;51.362;7.370;2023-04-30T10:41:00;22.50;99.90
12885;DHT22;6510;51.362;7.370;2023-04-30T10:43:29;22.00;99.90
12885;DHT22;6510;51.362;7.370;2023-04-30T10:45:58;19.90;99.90
12885;DHT22;6510;51.362;7.370;2023-04-30T10:48:24;20.20;99.90
12885;DHT22;6510;51.362;7.370;2023-04-30T10:50:57;21.40;99.90
12885;DHT22;6510;51.362;7.370;2023-04-30T10:53:31;21.70;99.90
12885;DHT22;6510;51.362;7.370;2023-04-30T10:56:00;22.00;99.90
12885;DHT22;6510;51.362;7.370;2023-04-30T10:58:57;21.80;99.90
12885;DHT22;6510;51.362;7.370;2023-04-30T11:01:22;21.90;99.90
12885;DHT22;6510;51.362;7.370;2023-04-30T11:04:09;22.30;99.90
12885;DHT22;6510;51.362;7.370;2023-04-30T11:07:00;20.90;99.90
12885;DHT22;6510;51.362;7.370;2023-04-30T11:12:08;21.00;99.90
12885;DHT22;6510;51.362;7.370;2023-04-30T11:14:34;21.60;99.90
12885;DHT22;6510;51.362;7.370;2023-04-30T11:17:04;21.90;99.90
12885;DHT22;6510;51.362;7.370;2023-04-30T11:19:31;21.90;99.90
12885;DHT22;6510;51.362;7.370;2023-04-30T11:22:26;21.30;99.90
12885;DHT22;6510;51.362;7.370;2023-04-30T11:25:18;21.80;99.90
12885;DHT22;6510;51.362;7.370;2023-04-30T11:27:44;21.60;99.90
12885;DHT22;6510;51.362;7.370;2023-04-30T11:30:14;21.80;99.90
12885;DHT22;6510;51.362;7.370;2023-04-30T11:32:42;22.20;99.90
12885;DHT22;6510;51.362;7.370;2023-04-30T11:35:19;22.90;99.90
12885;DHT22;6510;51.362;7.370;2023-04-30T11:37:46;22.80;99.90
12885;DHT22;6510;51.362;7.370;2023-04-30T11:40:13;22.30;99.90
12885;DHT22;6510;51.362;7.370;2023-04-30T11:42:49;22.20;99.90
12885;DHT22;6510;51.362;7.370;2023-04-30T11:45:19;22.60;99.90
12885;DHT22;6510;51.362;7.370;2023-04-30T11:47:53;22.60;99.90
12885;DHT22;6510;51.362;7.370;2023-04-30T11:50:26;22.60;99.90
12885;DHT22;6510;51.362;7.370;2023-04-30T11:52:58;22.10;99.90
12885;DHT22;6510;51.362;7.370;2023-04-30T11:55:27;21.90;99.90
12885;DHT22;6510;51.362;7.370;2023-04-30T11:57:58;22.10;99.90
12885;DHT22;6510;51.362;7.370;2023-04-30T12:00:33;22.10;99.90
12885;DHT22;6510;51.362;7.370;2023-04-30T12:03:03;22.10;99.90
12885;DHT22;6510;51.362;7.370;2023-04-30T12:05:29;22.30;99.90
12885;DHT22;6510;51.362;7.370;2023-04-30T12:07:59;22.00;99.90
12885;DHT22;6510;51.362;7.370;2023-04-30T12:10:40;21.50;99.90
12885;DHT22;6510;51.362;7.370;2023-04-30T12:13:13;21.00;99.90
12885;DHT22;6510;51.362;7.370;2023-04-30T12:15:39;21.40;99.90
12885;DHT22;6510;51.362;7.370;2023-04-30T12:18:12;21.90;99.90
12885;DHT22;6510;51.362;7.370;2023-04-30T12:20:39;22.20;99.90
12885;DHT22;6510;51.362;7.370;2023-04-30T12:23:09;22.50;99.90
12885;DHT22;6510;51.362;7.370;2023-04-30T12:25:41;22.80;99.90
12885;DHT22;6510;51.362;7.370;2023-04-30T12:28:10;22.50;99.90
12885;DHT22;6510;51.362;7.370;2023-04-30T12:30:36;22.20;99.90
12885;DHT22;6510;51.362;7.370;2023-04-30T12:33:02;22.60;99.90
12885;DHT22;6510;51.362;7.370;2023-04-30T12:35:29;22.20;99.90
12885;DHT22;6510;51.362;7.370;2023-04-30T12:38:06;21.10;99.90
12885;DHT22;6510;51.362;7.370;2023-04-30T12:41:09;21.70;99.90
12885;DHT22;6510;51.362;7.370;2023-04-30T12:43:25;22.40;99.90
12885;DHT22;6510;51.362;7.370;2023-04-30T12:46:11;22.00;99.90
12885;DHT22;6510;51.362;7.370;2023-04-30T12:48:43;21.70;99.90
12885;DHT22;6510;51.362;7.370;2023-04-30T12:51:10;21.60;99.90
12885;DHT22;6510;51.362;7.370;2023-04-30T12:53:46;22.00;99.90
12885;DHT22;6510;51.362;7.370;2023-04-30T12:56:14;22.00;99.90
12885;DHT22;6510;51.362;7.370;2023-04-30T12:58:48;21.90;99.90
12885;DHT22;6510;51.362;7.370;2023-04-30T13:01:17;21.90;99.90
12885;DHT22;6510;51.362;7.370;2023-04-30T13:03:43;22.20;99.90
12885;DHT22;6510;51.362;7.370;2023-04-30T13:06:09;22.20;99.90
12885;DHT22;6510;51.362;7.370;2023-04-30T13:08:37;21.60;99.90
12885;DHT22;6510;51.362;7.370;2023-04-30T13:11:03;22.00;99.90
12885;DHT22;6510;51.362;7.370;2023-04-30T13:13:29;21.60;99.90
12885;DHT22;6510;51.362;7.370;2023-04-30T13:15:55;20.90;99.90
12885;DHT22;6510;51.362;7.370;2023-04-30T13:18:21;21.10;99.90
12885;DHT22;6510;51.362;7.370;2023-04-30T13:20:50;21.20;99.90
12885;DHT22;6510;51.362;7.370;2023-04-30T13:23:16;20.40;99.90
12885;DHT22;6510;51.362;7.370;2023-04-30T13:25:42;21.40;99.90
12885;DHT22;6510;51.362;7.370;2023-04-30T13:28:10;21.00;99.90
12885;DHT22;6510;51.362;7.370;2023-04-30T13:30:36;20.90;99.90
12885;DHT22;6510;51.362;7.370;2023-04-30T13:33:02;20.90;99.90
12885;DHT22;6510;51.362;7.370;2023-04-30T13:35:27;20.80;99.90
12885;DHT22;6510;51.362;7.370;2023-04-30T13:37:53;21.30;99.90
12885;DHT22;6510;51.362;7.370;2023-04-30T13:40:20;21.90;99.90
12885;DHT22;6510;51.362;7.370;2023-04-30T13:42:50;21.40;99.90
12885;DHT22;6510;51.362;7.370;2023-04-30T13:45:15;21.30;99.90
12885;DHT22;6510;51.362;7.370;2023-04-30T13:47:41;20.60;99.90
12885;DHT22;6510;51.362;7.370;2023-04-30T13:50:10;21.00;99.90
12885;DHT22;6510;51.362;7.370;2023-04-30T13:52:45;21.30;99.90
12885;DHT22;6510;51.362;7.370;2023-04-30T13:55:17;21.10;99.90
12885;DHT22;6510;51.362;7.370;2023-04-30T13:57:43;21.00;99.90
12885;DHT22;6510;51.362;7.370;2023-04-30T14:00:12;21.60;99.90
12885;DHT22;6510;51.362;7.370;2023-04-30T14:02:38;20.60;99.90
12885;DHT22;6510;51.362;7.370;2023-04-30T14:05:03;20.80;99.90
12885;DHT22;6510;51.362;7.370;2023-04-30T14:07:41;20.70;99.90
12885;DHT22;6510;51.362;7.370;2023-04-30T14:10:07;20.50;99.90
12885;DHT22;6510;51.362;7.370;2023-04-30T14:12:33;20.50;99.90
12885;DHT22;6510;51.362;7.370;2023-04-30T14:14:59;19.90;99.90
12885;DHT22;6510;51.362;7.370;2023-04-30T14:17:24;20.40;99.90
12885;DHT22;6510;51.362;7.370;2023-04-30T14:19:54;19.70;99.90
12885;DHT22;6510;51.362;7.370;2023-04-30T14:22:20;19.10;99.90
12885;DHT22;6510;51.362;7.370;2023-04-30T14:24:46;19.60;99.90
12885;DHT22;6510;51.362;7.370;2023-04-30T14:27:11;19.70;99.90
12885;DHT22;6510;51.362;7.370;2023-04-30T14:29:43;19.60;99.90
12885;DHT22;6510;51.362;7.370;2023-04-30T14:32:11;19.30;99.90
12885;DHT22;6510;51.362;7.370;2023-04-30T14:34:40;19.30;99.90
12885;DHT22;6510;51.362;7.370;2023-04-30T14:37:05;19.40;99.90
12885;DHT22;6510;51.362;7.370;2023-04-30T14:39:31;19.10;99.90
12885;DHT22;6510;51.362;7.370;2023-04-30T14:42:00;19.00;99.90
12885;DHT22;6510;51.362;7.370;2023-04-30T14:44:26;19.10;99.90
12885;DHT22;6510;51.362;7.370;2023-04-30T14:46:52;19.00;99.90
12885;DHT22;6510;51.362;7.370;2023-04-30T14:49:17;19.00;99.90
12885;DHT22;6510;51.362;7.370;2023-04-30T14:51:49;18.80;99.90
12885;DHT22;6510;51.362;7.370;2023-04-30T14:54:15;19.30;99.90
12885;DHT22;6510;51.362;7.370;2023-04-30T14:56:40;19.20;99.90
12885;DHT22;6510;51.362;7.370;2023-04-30T14:59:06;19.00;99.90
12885;DHT22;6510;51.362;7.370;2023-04-30T15:01:32;18.60;99.90
12885;DHT22;6510;51.362;7.370;2023-04-30T15:03:57;18.80;99.90
12885;DHT22;6510;51.362;7.370;2023-04-30T15:06:26;18.60;99.90
12885;DHT22;6510;51.362;7.370;2023-04-30T15:08:52;18.50;99.90
12885;DHT22;6510;51.362;7.370;2023-04-30T15:11:17;18.20;99.90
12885;DHT22;6510;51.362;7.370;2023-04-30T15:13:43;18.40;99.90
12885;DHT22;6510;51.362;7.370;2023-04-30T15:16:09;18.20;99.90
12885;DHT22;6510;51.362;7.370;2023-04-30T15:18:38;18.40;99.90
12885;DHT22;6510;51.362;7.370;2023-04-30T15:21:04;18.30;99.90
12885;DHT22;6510;51.362;7.370;2023-04-30T15:23:30;18.40;99.90
12885;DHT22;6510;51.362;7.370;2023-04-30T15:26:01;18.00;99.90
12885;DHT22;6510;51.362;7.370;2023-04-30T15:28:29;18.10;99.90
12885;DHT22;6510;51.362;7.370;2023-04-30T15:31:01;18.10;99.90
12885;DHT22;6510;51.362;7.370;2023-04-30T15:33:28;18.00;99.90
12885;DHT22;6510;51.362;7.370;2023-04-30T15:35:55;17.50;99.90
12885;DHT22;6510;51.362;7.370;2023-04-30T15:38:21;17.70;99.90
12885;DHT22;6510;51.362;7.370;2023-04-30T15:40:47;17.80;99.90
12885;DHT22;6510;51.362;7.370;2023-04-30T15:43:12;17.70;99.90
12885;DHT22;6510;51.362;7.370;2023-04-30T15:45:39;17.50;99.90
12885;DHT22;6510;51.362;7.370;2023-04-30T15:48:05;17.40;99.90
12885;DHT22;6510;51.362;7.370;2023-04-30T15:50:34;17.30;99.90
12885;DHT22;6510;51.362;7.370;2023-04-30T15:52:59;17.30;99.90
12885;DHT22;6510;51.362;7.370;2023-04-30T15:55:25;17.20;99.90
12885;DHT22;6510;51.362;7.370;2023-04-30T15:57:51;17.00;99.90
12885;DHT22;6510;51.362;7.370;2023-04-30T16:00:16;16.80;99.90
12885;DHT22;6510;51.362;7.370;2023-04-30T16:02:42;16.90;99.90
12885;DHT22;6510;51.362;7.370;2023-04-30T16:05:08;17.00;99.90
12885;DHT22;6510;51.362;7.370;2023-04-30T16:07:36;16.90;99.90
12885;DHT22;6510;51.362;7.370;2023-04-30T16:10:05;16.50;99.90
12885;DHT22;6510;51.362;7.370;2023-04-30T16:12:34;16.70;99.90
12885;DHT22;6510;51.362;7.370;2023-04-30T16:15:00;16.70;99.90
12885;DHT22;6510;51.362;7.370;2023-04-30T16:17:26;16.70;99.90
12885;DHT22;6510;51.362;7.370;2023-04-30T16:20:11;16.50;99.90